Time;durP1;ratioP1;P1;durP2;ratioP2;P2;SDS_P1;SDS_P2;PMS_P1;PMS_P2;Temp;Humidity;BMP_temperature;BMP_pressure;BME280_temperature;BME280_humidity;BME280_pressure;Samples;Min_cycle;Max_cycle;Signal;HPM_P1;HPM_P2
2021/06/26 00:00:26;;;;;;;11.83;10.53;;;17.40;99.90;;;;;;4920570;29;20466;-76
2021/06/26 00:02:53;;;;;;;14.03;11.63;;;17.30;99.90;;;;;;4916286;29;20455;-75
2021/06/26 00:05:21;;;;;;;13.60;11.73;;;17.30;99.90;;;;;;4916372;29;20551;-76
2021/06/26 00:07:48;;;;;;;13.87;12.37;;;17.30;99.90;;;;;;4899524;29;20488;-76
2021/06/26 00:10:15;;;;;;;12.57;11.33;;;17.30;99.90;;;;;;4930578;29;20452;-76
2021/06/26 00:12:42;;;;;;;13.80;11.73;;;17.20;99.90;;;;;;4931758;29;21020;-76
2021/06/26 00:15:11;;;;;;;13.00;11.70;;;17.20;99.90;;;;;;4932874;29;20473;-76
2021/06/26 00:17:38;;;;;;;11.80;10.60;;;17.20;99.90;;;;;;4932841;29;20446;-76
2021/06/26 00:20:06;;;;;;;12.60;11.30;;;17.10;99.90;;;;;;4933423;29;20437;-76
2021/06/26 00:22:34;;;;;;;13.40;11.70;;;17.10;99.90;;;;;;4934653;29;20441;-74
2021/06/26 00:25:01;;;;;;;12.57;11.03;;;17.10;99.90;;;;;;4935168;29;20470;-75
2021/06/26 00:27:30;;;;;;;13.03;11.30;;;17.10;99.90;;;;;;4934965;29;20487;-76
2021/06/26 00:29:57;;;;;;;12.73;11.43;;;17.00;99.90;;;;;;4934921;29;20461;-76
2021/06/26 00:32:24;;;;;;;12.37;11.00;;;17.00;99.90;;;;;;4930837;29;20417;-76
2021/06/26 00:34:50;;;;;;;12.70;11.40;;;17.00;99.90;;;;;;4931569;29;20454;-77
2021/06/26 00:37:17;;;;;;;13.50;12.10;;;17.00;99.90;;;;;;4933203;29;20421;-77
2021/06/26 00:39:46;;;;;;;12.80;11.50;;;16.90;99.90;;;;;;4933046;29;20432;-76
2021/06/26 00:42:12;;;;;;;14.23;11.80;;;16.90;99.90;;;;;;4932928;29;20426;-77
2021/06/26 00:44:40;;;;;;;13.70;12.30;;;16.90;99.90;;;;;;4919204;29;20459;-77
2021/06/26 00:47:12;;;;;;;12.80;11.33;;;16.90;99.90;;;;;;4916085;29;20827;-77
2021/06/26 00:49:39;;;;;;;13.70;10.80;;;16.90;99.90;;;;;;4915843;29;20941;-77
2021/06/26 00:52:06;;;;;;;14.37;12.87;;;16.80;99.90;;;;;;4899852;29;20714;-75
2021/06/26 00:54:33;;;;;;;13.60;12.07;;;16.80;99.90;;;;;;4930555;29;20449;-76
2021/06/26 00:57:02;;;;;;;12.50;10.80;;;16.80;99.90;;;;;;4914635;29;20442;-76
2021/06/26 00:59:29;;;;;;;14.83;11.83;;;16.80;99.90;;;;;;4932834;29;20936;-76
2021/06/26 01:01:56;;;;;;;15.97;12.97;;;16.80;99.90;;;;;;4932861;29;20425;-77
2021/06/26 01:04:23;;;;;;;13.33;12.00;;;16.70;99.90;;;;;;4933225;29;20806;-76
2021/06/26 01:06:50;;;;;;;18.10;13.83;;;16.70;99.90;;;;;;4934079;29;20465;-76
2021/06/26 01:09:18;;;;;;;16.00;11.87;;;16.70;99.90;;;;;;4917966;29;20450;-77
2021/06/26 01:11:45;;;;;;;16.20;13.20;;;16.70;99.90;;;;;;4918020;29;20425;-76
2021/06/26 01:14:13;;;;;;;16.90;13.47;;;16.60;99.90;;;;;;4934505;29;20461;-76
2021/06/26 01:16:40;;;;;;;13.50;12.10;;;16.60;99.90;;;;;;4930276;29;20430;-76
2021/06/26 01:19:07;;;;;;;13.50;12.10;;;16.60;99.90;;;;;;4931626;29;20451;-77
2021/06/26 01:21:36;;;;;;;16.43;14.40;;;16.60;99.90;;;;;;4932743;29;20425;-76
2021/06/26 01:24:05;;;;;;;16.10;13.60;;;16.60;99.90;;;;;;4933104;29;20465;-76
2021/06/26 01:26:35;;;;;;;16.50;13.20;;;16.60;99.90;;;;;;4936208;29;20465;-76
2021/06/26 01:29:03;;;;;;;15.83;13.53;;;16.60;99.90;;;;;;4919989;29;20979;-76
2021/06/26 01:31:30;;;;;;;15.00;12.67;;;16.50;99.90;;;;;;4919130;29;20461;-76
2021/06/26 01:33:57;;;;;;;13.70;11.90;;;16.50;99.90;;;;;;4918937;29;20458;-76
2021/06/26 01:36:24;;;;;;;14.47;12.80;;;16.50;99.90;;;;;;4920612;29;20859;-77
2021/06/26 01:38:56;;;;;;;15.03;12.90;;;16.50;99.90;;;;;;4933566;29;20418;-76
2021/06/26 01:41:29;;;;;;;16.47;13.00;;;16.40;99.90;;;;;;4934916;29;20447;-77
2021/06/26 01:43:56;;;;;;;16.73;13.27;;;16.40;99.90;;;;;;4935668;29;20429;-76
2021/06/26 01:46:23;;;;;;;17.93;13.50;;;16.40;99.90;;;;;;4935571;29;20477;-76
2021/06/26 01:48:49;;;;;;;16.10;13.60;;;16.40;99.90;;;;;;4919064;29;20425;-77
2021/06/26 01:51:17;;;;;;;16.17;13.53;;;16.30;99.90;;;;;;4937055;29;20449;-76
2021/06/26 01:53:44;;;;;;;15.57;13.73;;;16.40;99.90;;;;;;4920886;29;20450;-76
2021/06/26 01:56:12;;;;;;;14.20;12.00;;;16.30;99.90;;;;;;4920626;29;20477;-76
2021/06/26 01:58:40;;;;;;;14.57;12.97;;;16.30;99.90;;;;;;4936541;29;20451;-77
2021/06/26 02:01:07;;;;;;;13.03;11.73;;;16.30;99.90;;;;;;4932945;29;20439;-77
2021/06/26 02:03:34;;;;;;;13.80;12.13;;;16.30;99.90;;;;;;4934330;29;20435;-76
2021/06/26 02:06:01;;;;;;;13.60;12.03;;;16.30;99.90;;;;;;4935174;29;20474;-76
2021/06/26 02:08:27;;;;;;;12.83;11.53;;;16.30;99.90;;;;;;4935236;29;20491;-76
2021/06/26 02:10:54;;;;;;;14.70;13.10;;;16.30;99.90;;;;;;4935865;29;20417;-76
2021/06/26 02:13:21;;;;;;;15.77;13.93;;;16.20;99.90;;;;;;4918145;29;20426;-76
2021/06/26 02:15:49;;;;;;;13.70;11.90;;;16.20;99.90;;;;;;4918098;29;20471;-77
2021/06/26 02:18:16;;;;;;;14.97;13.47;;;16.20;99.90;;;;;;4918059;29;20417;-76
2021/06/26 02:20:43;;;;;;;14.20;11.93;;;16.20;99.90;;;;;;4921551;29;20416;-76
2021/06/26 02:23:10;;;;;;;15.50;12.60;;;16.20;99.90;;;;;;4933102;29;20429;-76
2021/06/26 02:25:37;;;;;;;15.43;13.80;;;16.10;99.90;;;;;;4934157;29;20485;-76
2021/06/26 02:28:04;;;;;;;15.53;13.27;;;16.10;99.90;;;;;;4934726;29;20522;-76
2021/06/26 02:30:31;;;;;;;14.30;12.90;;;16.10;99.90;;;;;;4935175;29;20461;-75
2021/06/26 02:32:59;;;;;;;15.73;14.03;;;16.10;99.90;;;;;;4934869;29;20520;-76
2021/06/26 02:35:26;;;;;;;16.13;14.23;;;16.10;99.90;;;;;;4917026;29;20467;-76
2021/06/26 02:37:53;;;;;;;13.57;12.17;;;16.10;99.90;;;;;;4917768;29;20443;-76
2021/06/26 02:40:20;;;;;;;17.47;13.70;;;16.00;99.90;;;;;;4917660;29;20458;-76
2021/06/26 02:42:47;;;;;;;19.37;14.77;;;16.00;99.90;;;;;;4918860;29;20919;-76
2021/06/26 02:45:15;;;;;;;17.33;14.07;;;16.00;99.90;;;;;;4932244;29;20566;-77
2021/06/26 02:47:42;;;;;;;16.17;14.47;;;16.00;99.90;;;;;;4933255;29;20474;-76
2021/06/26 02:50:12;;;;;;;16.47;14.23;;;16.00;99.90;;;;;;4917630;29;20714;-76
2021/06/26 02:52:40;;;;;;;16.57;14.03;;;15.90;99.90;;;;;;4934584;29;20554;-75
2021/06/26 02:55:08;;;;;;;18.97;16.30;;;15.90;99.90;;;;;;4934635;29;20474;-77
2021/06/26 02:57:35;;;;;;;16.53;14.73;;;15.90;99.90;;;;;;4918639;29;20796;-76
2021/06/26 03:00:02;;;;;;;20.30;16.57;;;15.90;99.90;;;;;;4917189;29;20963;-76
2021/06/26 03:02:28;;;;;;;18.97;16.23;;;15.90;99.90;;;;;;4917433;29;20451;-76
2021/06/26 03:04:55;;;;;;;20.00;16.40;;;15.90;99.90;;;;;;4918977;29;20451;-77
2021/06/26 03:07:24;;;;;;;20.53;17.33;;;15.90;99.90;;;;;;4931766;29;20461;-76
2021/06/26 03:09:50;;;;;;;21.40;17.77;;;15.90;99.90;;;;;;4932903;29;20425;-76
2021/06/26 03:12:17;;;;;;;19.33;17.20;;;15.90;99.90;;;;;;4933949;29;20425;-76
2021/06/26 03:14:44;;;;;;;19.70;16.33;;;15.90;99.90;;;;;;4934070;29;20428;-77
2021/06/26 03:17:11;;;;;;;19.27;16.93;;;15.90;99.90;;;;;;4934581;29;20814;-75
2021/06/26 03:19:39;;;;;;;22.00;17.10;;;15.90;99.90;;;;;;4935370;29;20471;-76
2021/06/26 03:22:07;;;;;;;18.60;16.27;;;15.90;99.90;;;;;;4936120;29;20425;-76
2021/06/26 03:24:35;;;;;;;19.90;15.90;;;15.90;99.90;;;;;;4919178;29;20457;-76
2021/06/26 03:27:02;;;;;;;18.37;15.23;;;15.90;99.90;;;;;;4934926;29;20433;-76
2021/06/26 03:29:29;;;;;;;18.27;16.07;;;15.90;99.90;;;;;;4932025;29;20439;-75
2021/06/26 03:31:56;;;;;;;18.47;15.47;;;15.90;99.90;;;;;;4932349;29;20437;-77
2021/06/26 03:34:22;;;;;;;17.17;15.37;;;15.90;99.90;;;;;;4933499;29;20504;-77
2021/06/26 03:36:49;;;;;;;17.30;15.13;;;15.90;99.90;;;;;;4933517;29;20463;-76
2021/06/26 03:39:16;;;;;;;18.07;14.90;;;15.90;99.90;;;;;;4934365;29;20451;-76
2021/06/26 03:41:44;;;;;;;22.90;16.67;;;15.90;99.90;;;;;;4933153;29;20418;-76
2021/06/26 03:44:11;;;;;;;17.37;15.40;;;15.90;99.90;;;;;;4931574;29;20435;-76
2021/06/26 03:46:38;;;;;;;21.20;17.20;;;15.80;99.90;;;;;;4932562;29;21027;-76
2021/06/26 03:49:05;;;;;;;23.13;17.50;;;15.80;99.90;;;;;;4933368;29;20417;-75
2021/06/26 03:51:32;;;;;;;18.97;15.77;;;15.80;99.90;;;;;;4933377;29;20443;-77
2021/06/26 03:53:59;;;;;;;18.53;16.60;;;15.80;99.90;;;;;;4933555;29;20443;-75
2021/06/26 03:56:26;;;;;;;18.77;15.23;;;15.80;99.90;;;;;;4935624;29;20445;-76
2021/06/26 03:58:54;;;;;;;19.17;14.90;;;15.80;99.90;;;;;;4935659;29;20463;-76
2021/06/26 04:01:21;;;;;;;17.57;15.70;;;15.80;99.90;;;;;;4935262;29;20421;-76
2021/06/26 04:03:48;;;;;;;17.10;14.03;;;15.80;99.90;;;;;;4933986;29;20417;-76
2021/06/26 04:06:15;;;;;;;23.10;16.60;;;15.80;99.90;;;;;;4930978;29;20512;-77
2021/06/26 04:08:43;;;;;;;20.20;16.40;;;15.80;99.90;;;;;;4915548;29;20449;-76
2021/06/26 04:11:09;;;;;;;17.03;15.17;;;15.80;99.90;;;;;;4933434;29;20515;-75
2021/06/26 04:13:36;;;;;;;16.77;15.07;;;15.80;99.90;;;;;;4916519;29;20594;-76
2021/06/26 04:16:06;;;;;;;17.43;15.00;;;15.80;99.90;;;;;;4933343;29;20820;-76
2021/06/26 04:18:33;;;;;;;18.00;14.50;;;15.90;99.90;;;;;;4935020;29;20589;-76
2021/06/26 04:21:00;;;;;;;17.37;15.47;;;15.90;99.90;;;;;;4935205;29;20805;-76
2021/06/26 04:23:27;;;;;;;17.90;16.07;;;15.90;99.90;;;;;;4935118;29;20425;-76
2021/06/26 04:25:54;;;;;;;17.07;15.37;;;15.90;99.90;;;;;;4933761;29;20445;-75
2021/06/26 04:28:21;;;;;;;19.53;15.13;;;15.90;99.90;;;;;;4930595;29;20478;-76
2021/06/26 04:30:48;;;;;;;16.33;14.33;;;15.90;99.90;;;;;;4915390;29;20466;-76
2021/06/26 04:33:17;;;;;;;17.17;14.50;;;15.90;99.90;;;;;;4932831;29;20990;-77
2021/06/26 04:35:44;;;;;;;16.93;14.57;;;16.00;99.90;;;;;;4932995;29;20814;-75
2021/06/26 04:38:11;;;;;;;17.63;14.23;;;16.00;99.90;;;;;;4930263;29;21024;-76
2021/06/26 04:40:38;;;;;;;16.83;15.03;;;16.10;99.90;;;;;;4916046;29;20422;-76
2021/06/26 04:43:06;;;;;;;15.67;14.10;;;16.10;99.90;;;;;;4916084;29;20958;-76
2021/06/26 04:45:33;;;;;;;15.77;14.13;;;16.20;99.90;;;;;;4915989;29;20475;-76
2021/06/26 04:48:01;;;;;;;15.27;13.73;;;16.30;99.90;;;;;;4921537;29;20424;-76
2021/06/26 04:50:31;;;;;;;18.07;14.30;;;16.40;99.90;;;;;;4930366;29;20452;-76
2021/06/26 04:52:58;;;;;;;15.10;13.60;;;16.40;99.90;;;;;;4932372;29;20432;-77
2021/06/26 04:55:25;;;;;;;17.80;14.97;;;16.50;99.90;;;;;;4933029;29;20437;-76
2021/06/26 04:57:52;;;;;;;15.43;13.83;;;16.60;99.90;;;;;;4933178;29;20452;-77
2021/06/26 05:00:20;;;;;;;15.77;13.93;;;16.60;99.90;;;;;;4935672;29;20553;-76
2021/06/26 05:02:47;;;;;;;14.57;12.43;;;16.60;99.90;;;;;;4938439;29;20421;-76
2021/06/26 05:05:14;;;;;;;15.33;13.73;;;16.70;99.90;;;;;;4938479;29;20457;-76
2021/06/26 05:07:42;;;;;;;15.50;13.90;;;16.80;99.90;;;;;;4938471;29;20848;-76
2021/06/26 05:10:10;;;;;;;14.27;12.87;;;16.80;99.90;;;;;;4936526;29;20446;-76
2021/06/26 05:12:36;;;;;;;16.73;12.93;;;16.90;99.90;;;;;;4934175;29;20786;-76
2021/06/26 05:15:04;;;;;;;15.60;13.63;;;17.00;99.90;;;;;;4935501;29;20807;-76
2021/06/26 05:17:31;;;;;;;14.90;13.43;;;17.00;99.90;;;;;;4918993;29;20793;-77
2021/06/26 05:19:58;;;;;;;14.90;13.23;;;17.00;99.90;;;;;;4936240;29;20452;-75
2021/06/26 05:22:25;;;;;;;16.27;14.13;;;17.10;99.90;;;;;;4932570;29;20458;-77
2021/06/26 05:24:53;;;;;;;18.27;13.40;;;17.10;99.90;;;;;;4919058;29;20465;-75
2021/06/26 05:27:20;;;;;;;15.40;12.87;;;17.10;99.90;;;;;;4918871;29;20488;-76
2021/06/26 05:29:48;;;;;;;16.70;14.17;;;17.20;99.90;;;;;;4918935;29;20454;-76
2021/06/26 05:32:15;;;;;;;13.53;12.10;;;17.20;99.90;;;;;;4925614;29;20450;-76
2021/06/26 05:34:42;;;;;;;13.47;11.67;;;17.20;99.90;;;;;;4933212;29;20954;-75
2021/06/26 05:37:09;;;;;;;13.73;12.10;;;17.30;99.90;;;;;;4899930;29;20877;-77
2021/06/26 05:39:36;;;;;;;14.20;12.63;;;17.40;99.90;;;;;;4899885;29;20529;-75
2021/06/26 05:42:05;;;;;;;14.43;13.00;;;17.60;99.90;;;;;;4916718;29;20447;-75
2021/06/26 05:44:32;;;;;;;16.60;13.33;;;17.80;99.90;;;;;;4921861;29;20474;-76
2021/06/26 05:46:58;;;;;;;14.70;13.17;;;17.90;99.90;;;;;;4937867;29;20800;-76
2021/06/26 05:49:25;;;;;;;13.03;11.77;;;18.00;99.90;;;;;;4937668;29;20446;-75
2021/06/26 05:51:52;;;;;;;13.07;11.77;;;18.20;99.90;;;;;;4937697;29;20451;-77
2021/06/26 05:54:19;;;;;;;11.23;10.00;;;18.40;99.90;;;;;;4935529;29;20473;-75
2021/06/26 05:56:46;;;;;;;12.53;11.30;;;18.60;99.90;;;;;;4933270;29;21385;-77
2021/06/26 05:59:15;;;;;;;12.23;11.03;;;18.80;99.90;;;;;;4916180;29;20830;-77
2021/06/26 06:01:42;;;;;;;12.00;10.80;;;19.00;99.90;;;;;;4899714;29;20550;-76
2021/06/26 06:04:09;;;;;;;11.87;10.70;;;19.30;99.90;;;;;;4916675;29;20459;-76
2021/06/26 06:06:37;;;;;;;10.40;9.40;;;19.50;99.90;;;;;;4899993;29;20985;-76
2021/06/26 06:09:05;;;;;;;13.40;11.37;;;19.70;99.90;;;;;;4901744;29;20447;-76
2021/06/26 06:11:32;;;;;;;12.07;10.93;;;20.00;99.90;;;;;;4920820;29;20454;-76
2021/06/26 06:13:59;;;;;;;12.63;11.40;;;20.30;99.90;;;;;;4932994;29;20521;-77
2021/06/26 06:16:27;;;;;;;10.30;9.40;;;20.80;99.90;;;;;;4934384;29;20463;-77
2021/06/26 06:18:55;;;;;;;11.43;10.43;;;21.20;99.90;;;;;;4934760;29;20839;-76
2021/06/26 06:21:22;;;;;;;9.40;8.50;;;21.60;99.90;;;;;;4918249;29;20446;-77
2021/06/26 06:23:49;;;;;;;10.73;9.83;;;22.00;99.90;;;;;;4934848;29;20549;-76
2021/06/26 06:26:16;;;;;;;12.87;10.00;;;22.40;99.90;;;;;;4933129;29;20469;-76
2021/06/26 06:28:42;;;;;;;12.10;10.93;;;22.80;99.90;;;;;;4932527;29;20476;-77
2021/06/26 06:31:09;;;;;;;10.80;9.70;;;23.20;99.90;;;;;;4934397;29;20450;-76
2021/06/26 06:33:38;;;;;;;10.77;9.67;;;23.60;99.90;;;;;;4934506;29;20439;-77
2021/06/26 06:36:07;;;;;;;11.10;9.50;;;24.00;99.90;;;;;;4935383;29;20470;-75
2021/06/26 06:38:34;;;;;;;11.50;10.40;;;24.30;99.90;;;;;;4935857;29;20495;-76
2021/06/26 06:41:01;;;;;;;10.30;9.40;;;24.50;99.90;;;;;;4936743;29;20537;-77
2021/06/26 06:43:28;;;;;;;9.97;9.07;;;24.70;99.90;;;;;;4936701;29;20454;-82
2021/06/26 06:45:55;;;;;;;10.73;9.77;;;24.90;99.90;;;;;;4936343;29;20470;-81
2021/06/26 06:48:22;;;;;;;10.70;9.70;;;25.00;99.90;;;;;;4933730;29;21425;-79
2021/06/26 06:50:50;;;;;;;10.10;9.10;;;25.20;99.90;;;;;;4929992;29;20963;-76
2021/06/26 06:53:17;;;;;;;9.97;8.47;;;25.20;99.90;;;;;;4930570;29;20454;-78
2021/06/26 06:55:50;;;;;;;9.67;8.87;;;25.40;99.90;;;;;;4931072;29;20470;-78
2021/06/26 06:58:17;;;;;;;10.30;9.30;;;25.50;99.90;;;;;;4930841;29;20510;-77
2021/06/26 07:00:44;;;;;;;10.97;9.87;;;25.70;99.90;;;;;;4930975;29;20804;-77
2021/06/26 07:03:11;;;;;;;12.47;11.40;;;25.70;99.90;;;;;;4928381;29;20967;-77
2021/06/26 07:05:38;;;;;;;11.80;10.70;;;25.90;99.90;;;;;;4912741;29;20480;-78
2021/06/26 07:08:07;;;;;;;14.27;12.30;;;26.00;99.90;;;;;;4931218;29;20451;-78
2021/06/26 07:10:34;;;;;;;12.97;11.77;;;26.10;99.90;;;;;;4898174;29;20457;-77
2021/06/26 07:13:01;;;;;;;11.80;10.40;;;26.40;99.90;;;;;;4931123;29;20455;-78
2021/06/26 07:15:28;;;;;;;13.00;11.80;;;26.60;99.90;;;;;;4914634;29;20914;-78
2021/06/26 07:17:55;;;;;;;15.90;12.93;;;26.80;99.90;;;;;;4932463;29;20454;-78
2021/06/26 07:20:22;;;;;;;11.47;10.47;;;27.00;99.90;;;;;;4932684;29;20457;-78
2021/06/26 07:22:49;;;;;;;12.70;11.40;;;27.40;99.90;;;;;;4931677;29;20973;-78
2021/06/26 07:25:17;;;;;;;11.90;10.80;;;27.80;99.90;;;;;;4928083;29;20485;-78
2021/06/26 07:27:44;;;;;;;13.80;12.40;;;28.20;99.90;;;;;;4928408;29;20573;-77
2021/06/26 07:30:12;;;;;;;11.40;10.30;;;28.70;99.90;;;;;;4930547;29;20966;-78
2021/06/26 07:32:40;;;;;;;11.20;10.30;;;29.10;99.90;;;;;;4930255;29;20915;-78
2021/06/26 07:35:08;;;;;;;14.00;12.47;;;29.60;99.90;;;;;;4895293;29;20482;-78
2021/06/26 07:37:36;;;;;;;11.83;10.83;;;30.00;99.90;;;;;;4927017;29;20482;-78
2021/06/26 07:40:05;;;;;;;12.43;11.23;;;30.40;99.90;;;;;;4931626;29;20460;-78
2021/06/26 07:42:33;;;;;;;13.40;12.27;;;30.80;99.90;;;;;;4931969;29;20454;-78
2021/06/26 07:45:01;;;;;;;12.83;11.63;;;31.20;99.90;;;;;;4932364;29;20454;-78
2021/06/26 07:47:27;;;;;;;15.00;12.40;;;31.50;99.90;;;;;;4926066;29;21575;-78
2021/06/26 07:49:54;;;;;;;13.93;11.30;;;31.90;99.90;;;;;;4928177;29;20492;-78
2021/06/26 07:52:22;;;;;;;13.07;11.87;;;32.30;99.90;;;;;;4929950;29;20489;-78
2021/06/26 07:54:51;;;;;;;12.60;11.40;;;32.60;99.90;;;;;;4930124;29;20488;-77
2021/06/26 07:57:18;;;;;;;11.70;10.60;;;32.90;99.90;;;;;;4929059;29;21052;-78
2021/06/26 07:59:46;;;;;;;11.83;10.63;;;33.10;99.90;;;;;;4928464;29;20884;-79
2021/06/26 08:02:14;;;;;;;14.33;13.03;;;33.40;99.90;;;;;;4927105;29;20447;-78
2021/06/26 08:04:41;;;;;;;12.00;10.90;;;33.60;99.90;;;;;;4912634;29;20455;-79
2021/06/26 08:07:08;;;;;;;13.47;11.57;;;33.80;99.90;;;;;;4929490;29;20805;-79
2021/06/26 08:09:34;;;;;;;13.27;12.00;;;34.00;99.90;;;;;;4929866;29;20478;-79
2021/06/26 08:12:01;;;;;;;11.70;10.67;;;34.10;99.90;;;;;;4928719;29;20442;-78
2021/06/26 08:14:28;;;;;;;11.93;10.73;;;34.30;99.90;;;;;;4914312;29;20455;-78
2021/06/26 08:16:57;;;;;;;9.93;9.03;;;34.50;99.90;;;;;;4931490;29;20470;-78
2021/06/26 08:19:23;;;;;;;12.87;10.30;;;34.70;99.90;;;;;;4931539;29;20450;-79
2021/06/26 08:21:50;;;;;;;10.60;9.60;;;34.80;99.90;;;;;;4931067;29;20442;-78
2021/06/26 08:24:18;;;;;;;11.47;10.37;;;35.00;99.90;;;;;;4927234;29;20451;-79
2021/06/26 08:26:45;;;;;;;10.90;9.90;;;35.10;99.90;;;;;;4928087;29;20557;-78
2021/06/26 08:29:12;;;;;;;10.97;9.87;;;35.20;99.90;;;;;;4928667;29;20508;-77
2021/06/26 08:31:39;;;;;;;11.37;10.30;;;35.40;99.90;;;;;;4928732;29;20451;-77
2021/06/26 08:34:07;;;;;;;9.60;8.80;;;35.60;99.90;;;;;;4932279;29;20454;-78
2021/06/26 08:36:34;;;;;;;11.50;10.30;;;35.70;99.90;;;;;;4927753;29;20470;-77
2021/06/26 08:39:01;;;;;;;9.23;8.43;;;35.80;99.90;;;;;;4931306;29;20458;-77
2021/06/26 08:41:29;;;;;;;9.87;8.97;;;35.90;99.90;;;;;;4933556;29;20545;-77
2021/06/26 08:43:57;;;;;;;10.17;9.27;;;36.00;99.90;;;;;;4933411;29;20854;-78
2021/06/26 08:46:25;;;;;;;10.73;9.43;;;36.00;99.90;;;;;;4933379;29;20473;-77
2021/06/26 08:48:52;;;;;;;12.87;9.87;;;36.10;99.90;;;;;;4934168;29;20494;-78
2021/06/26 08:51:21;;;;;;;11.20;10.20;;;36.10;99.90;;;;;;4935039;29;20568;-78
2021/06/26 08:53:48;;;;;;;11.17;10.20;;;36.10;99.90;;;;;;4934993;29;20458;-78
2021/06/26 08:56:14;;;;;;;10.90;9.93;;;36.10;99.90;;;;;;4934766;29;20474;-78
2021/06/26 08:58:41;;;;;;;11.67;10.67;;;36.10;99.90;;;;;;4932192;29;20458;-78
2021/06/26 09:01:08;;;;;;;11.03;10.03;;;36.10;99.90;;;;;;4931384;29;20450;-78
2021/06/26 09:03:35;;;;;;;10.17;9.27;;;36.00;99.90;;;;;;4932520;29;20458;-78
2021/06/26 09:06:06;;;;;;;10.67;9.07;;;36.10;99.90;;;;;;4933019;29;20470;-79
2021/06/26 09:08:34;;;;;;;12.73;11.20;;;36.10;99.90;;;;;;4933349;29;20450;-78
2021/06/26 09:11:01;;;;;;;9.87;8.90;;;36.00;99.90;;;;;;4923097;29;20471;-79
2021/06/26 09:13:34;;;;;;;10.20;9.20;;;35.90;99.90;;;;;;4915539;29;20455;-78
2021/06/26 09:16:06;;;;;;;9.07;8.17;;;35.90;99.90;;;;;;4915560;29;20668;-77
2021/06/26 09:18:40;;;;;;;8.17;7.37;;;35.80;99.90;;;;;;4915604;29;20961;-78
2021/06/26 09:21:19;;;;;;;8.60;7.90;;;35.70;99.90;;;;;;4907865;29;20449;-77
2021/06/26 09:24:00;;;;;;;9.10;8.30;;;35.60;99.90;;;;;;4913306;29;20475;-76
2021/06/26 09:26:27;;;;;;;7.67;6.80;;;35.50;99.90;;;;;;4900385;29;20538;-76
2021/06/26 09:28:54;;;;;;;7.83;7.10;;;35.20;99.90;;;;;;4932456;29;20775;-79
2021/06/26 09:31:22;;;;;;;7.20;6.53;;;34.90;99.90;;;;;;4933035;29;20549;-79
2021/06/26 09:34:00;;;;;;;7.30;6.67;;;34.40;99.90;;;;;;4916808;29;20518;-80
2021/06/26 09:36:31;;;;;;;9.47;6.93;;;34.00;99.90;;;;;;4934503;29;20505;-82
2021/06/26 09:39:01;;;;;;;5.93;5.43;;;33.70;99.90;;;;;;4917297;29;20454;-78
2021/06/26 09:41:29;;;;;;;6.77;5.80;;;33.20;99.90;;;;;;4917380;29;20461;-83
2021/06/26 09:44:07;;;;;;;6.43;5.83;;;32.80;99.90;;;;;;4930685;29;20801;-85
2021/06/26 09:46:46;;;;;;;6.97;6.27;;;32.40;99.90;;;;;;4914639;29;20864;-79
2021/06/26 09:49:13;;;;;;;7.83;6.90;;;31.90;99.90;;;;;;4932013;29;20493;-82
2021/06/26 09:51:40;;;;;;;7.10;6.40;;;31.40;99.90;;;;;;4914987;29;20451;-77
2021/06/26 09:54:09;;;;;;;7.97;6.77;;;31.00;99.90;;;;;;4932121;29;20459;-81
2021/06/26 09:56:39;;;;;;;9.03;7.20;;;30.70;99.90;;;;;;4931975;29;20494;-80
2021/06/26 09:59:06;;;;;;;8.97;8.07;;;30.30;99.90;;;;;;4915714;29;20465;-80
2021/06/26 10:01:35;;;;;;;8.43;7.40;;;29.80;99.90;;;;;;4934036;29;20461;-82
2021/06/26 10:04:02;;;;;;;8.23;7.53;;;29.50;99.90;;;;;;4934467;29;20580;-80
2021/06/26 10:06:30;;;;;;;7.63;6.87;;;29.20;99.90;;;;;;4934698;29;21014;-76
2021/06/26 10:08:57;;;;;;;7.10;6.40;;;29.00;99.90;;;;;;4935960;29;20982;-76
2021/06/26 10:11:26;;;;;;;7.23;6.63;;;28.90;99.90;;;;;;4936963;29;20451;-78
2021/06/26 10:13:53;;;;;;;8.57;7.50;;;28.60;99.90;;;;;;4937136;29;20537;-78
2021/06/26 10:16:21;;;;;;;7.70;7.00;;;28.30;99.90;;;;;;4936952;29;20972;-77
2021/06/26 10:18:48;;;;;;;7.93;7.23;;;28.10;99.90;;;;;;4931199;29;20485;-77
2021/06/26 10:21:16;;;;;;;8.17;7.47;;;27.90;99.90;;;;;;4927334;29;20823;-78
2021/06/26 10:23:43;;;;;;;8.10;7.30;;;27.80;99.90;;;;;;4917978;29;20450;-77
2021/06/26 10:26:10;;;;;;;7.50;6.80;;;27.70;99.90;;;;;;4934723;29;20497;-78
2021/06/26 10:28:49;;;;;;;7.10;6.40;;;27.60;99.90;;;;;;4934889;29;20505;-77
2021/06/26 10:31:16;;;;;;;6.33;5.80;;;27.60;99.90;;;;;;4918974;29;20496;-77
2021/06/26 10:33:46;;;;;;;7.73;7.03;;;27.50;99.90;;;;;;4936908;29;20549;-76
2021/06/26 10:36:13;;;;;;;7.17;6.33;;;27.40;99.90;;;;;;4936528;29;20895;-76
2021/06/26 10:38:41;;;;;;;8.53;5.97;;;27.30;99.90;;;;;;4936988;29;20447;-75
2021/06/26 10:41:17;;;;;;;6.37;5.77;;;27.30;99.90;;;;;;4934896;29;20438;-77
2021/06/26 10:43:56;;;;;;;7.13;6.43;;;27.20;99.90;;;;;;4932507;29;20442;-76
2021/06/26 10:46:23;;;;;;;6.80;6.20;;;27.20;99.90;;;;;;4917633;29;20569;-77
2021/06/26 10:49:01;;;;;;;6.33;5.73;;;27.10;99.90;;;;;;4934091;29;20446;-77
2021/06/26 10:51:33;;;;;;;6.90;6.30;;;27.10;99.90;;;;;;4918087;29;20513;-77
2021/06/26 10:54:10;;;;;;;7.30;6.10;;;27.00;99.90;;;;;;4918657;29;20466;-76
2021/06/26 10:56:37;;;;;;;7.23;6.37;;;27.00;99.90;;;;;;4918754;29;21033;-76
2021/06/26 10:59:14;;;;;;;7.67;6.87;;;26.90;99.90;;;;;;4936326;29;20442;-77
2021/06/26 11:01:53;;;;;;;7.77;7.07;;;26.90;99.90;;;;;;4936694;29;20447;-76
2021/06/26 11:04:20;;;;;;;6.60;6.07;;;26.80;99.90;;;;;;4915777;29;20975;-77
2021/06/26 11:06:50;;;;;;;8.10;6.90;;;26.80;99.90;;;;;;4932528;29;20455;-77
2021/06/26 11:09:17;;;;;;;7.40;6.70;;;26.70;99.90;;;;;;4917147;29;20443;-77
2021/06/26 11:11:45;;;;;;;6.07;5.57;;;26.60;99.90;;;;;;4934027;29;20768;-76
2021/06/26 11:14:16;;;;;;;6.90;6.20;;;26.50;99.90;;;;;;4924563;29;20456;-78
2021/06/26 11:16:49;;;;;;;6.10;5.50;;;26.40;99.90;;;;;;4906038;29;20471;-78
2021/06/26 11:19:16;;;;;;;7.33;6.63;;;26.30;99.90;;;;;;4917093;29;20451;-78
2021/06/26 11:21:46;;;;;;;6.50;5.90;;;26.10;99.90;;;;;;4900269;29;20454;-76
2021/06/26 11:24:13;;;;;;;6.80;6.10;;;26.00;99.90;;;;;;4900173;29;20546;-77
2021/06/26 11:26:51;;;;;;;6.07;5.57;;;25.90;99.90;;;;;;4912167;29;20473;-78
2021/06/26 11:29:28;;;;;;;7.63;5.67;;;25.70;99.90;;;;;;4913289;29;20445;-78
2021/06/26 11:31:55;;;;;;;7.60;6.50;;;25.50;99.90;;;;;;4915115;29;20459;-78
2021/06/26 11:34:23;;;;;;;6.67;5.90;;;25.40;99.90;;;;;;4914959;29;20459;-78
2021/06/26 11:37:00;;;;;;;7.67;6.90;;;25.40;99.90;;;;;;4915488;29;20472;-78
2021/06/26 11:39:27;;;;;;;5.87;5.37;;;25.20;99.90;;;;;;4915572;29;20491;-77
2021/06/26 11:41:54;;;;;;;7.10;6.40;;;25.10;99.90;;;;;;4916533;29;21001;-77
2021/06/26 11:44:33;;;;;;;6.60;6.00;;;25.10;99.90;;;;;;4916821;29;20443;-76
2021/06/26 11:47:01;;;;;;;7.90;5.70;;;25.00;99.90;;;;;;4916545;29;20471;-78
2021/06/26 11:49:33;;;;;;;6.77;6.10;;;25.00;99.90;;;;;;4912384;29;20921;-78
2021/06/26 11:52:00;;;;;;;6.80;6.20;;;24.90;99.90;;;;;;4913145;29;20458;-76
2021/06/26 11:54:27;;;;;;;6.43;5.83;;;24.90;99.90;;;;;;4914814;29;20458;-77
2021/06/26 11:56:54;;;;;;;6.43;5.83;;;24.80;99.90;;;;;;4914831;29;20467;-79
2021/06/26 11:59:22;;;;;;;6.43;5.93;;;24.90;99.90;;;;;;4914176;29;20443;-77
2021/06/26 12:01:50;;;;;;;6.50;5.60;;;24.80;99.90;;;;;;4913999;29;20557;-77
2021/06/26 12:04:28;;;;;;;6.20;5.60;;;24.70;99.90;;;;;;4909969;29;20564;-78
2021/06/26 12:06:55;;;;;;;5.90;5.40;;;24.70;99.90;;;;;;4891583;29;20467;-77
2021/06/26 12:09:23;;;;;;;6.53;5.80;;;24.60;99.90;;;;;;4908821;29;20458;-77
2021/06/26 12:11:51;;;;;;;8.00;5.80;;;24.60;99.90;;;;;;4898220;29;20482;-77
2021/06/26 12:14:26;;;;;;;6.60;6.00;;;24.60;99.90;;;;;;4892417;29;20959;-77
2021/06/26 12:17:02;;;;;;;6.00;5.40;;;24.60;99.90;;;;;;4891750;29;20499;-77
2021/06/26 12:19:31;;;;;;;6.40;5.43;;;24.60;99.90;;;;;;4891296;29;20439;-76
2021/06/26 12:21:59;;;;;;;6.47;5.80;;;24.60;99.90;;;;;;4908948;29;20859;-76
2021/06/26 12:24:27;;;;;;;6.53;5.93;;;24.60;99.90;;;;;;4893911;29;20458;-77
2021/06/26 12:27:10;;;;;;;6.20;5.60;;;24.60;99.90;;;;;;4894185;29;20806;-77
2021/06/26 12:29:39;;;;;;;7.47;6.30;;;24.70;99.90;;;;;;4904814;29;20454;-77
2021/06/26 12:32:08;;;;;;;6.87;6.17;;;24.60;99.90;;;;;;4915088;29;20545;-77
2021/06/26 12:34:46;;;;;;;6.60;6.00;;;24.60;99.90;;;;;;4931337;29;20458;-78
2021/06/26 12:37:13;;;;;;;6.10;5.50;;;24.60;99.90;;;;;;4914770;29;20442;-77